sensor_id;sensor_type;location;lat;lon;timestamp;temperature;humidity
15394;DHT22;7795;47.986;11.868;2022-12-18T00:01:31;-0.80;81.90
15394;DHT22;7795;47.986;11.868;2022-12-18T00:04:01;-0.80;81.90
15394;DHT22;7795;47.986;11.868;2022-12-18T00:06:28;-0.90;81.90
15394;DHT22;7795;47.986;11.868;2022-12-18T00:08:55;-0.90;82.00
15394;DHT22;7795;47.986;11.868;2022-12-18T00:11:23;-0.90;82.00
15394;DHT22;7795;47.986;11.868;2022-12-18T00:13:50;-0.90;82.00
15394;DHT22;7795;47.986;11.868;2022-12-18T00:16:18;-0.90;81.90
15394;DHT22;7795;47.986;11.868;2022-12-18T00:18:46;-0.90;81.90
15394;DHT22;7795;47.986;11.868;2022-12-18T00:21:14;-1.00;81.90
15394;DHT22;7795;47.986;11.868;2022-12-18T00:23:41;-1.00;82.00
15394;DHT22;7795;47.986;11.868;2022-12-18T00:26:11;-1.00;82.00
15394;DHT22;7795;47.986;11.868;2022-12-18T00:28:37;-1.00;82.20
15394;DHT22;7795;47.986;11.868;2022-12-18T00:31:04;-1.00;82.10
15394;DHT22;7795;47.986;11.868;2022-12-18T00:33:30;-1.00;82.20
15394;DHT22;7795;47.986;11.868;2022-12-18T00:36:00;-1.00;82.10
15394;DHT22;7795;47.986;11.868;2022-12-18T00:38:27;-1.00;82.20
15394;DHT22;7795;47.986;11.868;2022-12-18T00:40:53;-1.00;82.30
15394;DHT22;7795;47.986;11.868;2022-12-18T00:43:19;-1.00;82.30
15394;DHT22;7795;47.986;11.868;2022-12-18T00:45:45;-1.00;82.40
15394;DHT22;7795;47.986;11.868;2022-12-18T00:48:11;-1.00;82.50
15394;DHT22;7795;47.986;11.868;2022-12-18T00:50:36;-1.00;82.40
15394;DHT22;7795;47.986;11.868;2022-12-18T00:53:02;-1.00;82.40
15394;DHT22;7795;47.986;11.868;2022-12-18T00:55:29;-1.00;82.30
15394;DHT22;7795;47.986;11.868;2022-12-18T00:57:55;-1.00;82.30
15394;DHT22;7795;47.986;11.868;2022-12-18T01:00:21;-1.00;82.30
15394;DHT22;7795;47.986;11.868;2022-12-18T01:02:47;-1.00;82.40
15394;DHT22;7795;47.986;11.868;2022-12-18T01:05:14;-1.00;82.40
15394;DHT22;7795;47.986;11.868;2022-12-18T01:07:39;-1.00;82.40
15394;DHT22;7795;47.986;11.868;2022-12-18T01:10:06;-1.00;82.40
15394;DHT22;7795;47.986;11.868;2022-12-18T01:12:35;-1.00;82.50
15394;DHT22;7795;47.986;11.868;2022-12-18T01:15:01;-1.00;82.60
15394;DHT22;7795;47.986;11.868;2022-12-18T01:17:27;-1.00;82.60
15394;DHT22;7795;47.986;11.868;2022-12-18T01:19:52;-0.90;82.70
15394;DHT22;7795;47.986;11.868;2022-12-18T01:22:18;-0.90;82.70
15394;DHT22;7795;47.986;11.868;2022-12-18T01:24:44;-0.90;82.70
15394;DHT22;7795;47.986;11.868;2022-12-18T01:27:09;-0.90;82.70
15394;DHT22;7795;47.986;11.868;2022-12-18T01:29:36;-0.80;82.80
15394;DHT22;7795;47.986;11.868;2022-12-18T01:32:02;-0.80;82.80
15394;DHT22;7795;47.986;11.868;2022-12-18T01:34:28;-0.80;82.80
15394;DHT22;7795;47.986;11.868;2022-12-18T01:36:54;-0.80;82.70
15394;DHT22;7795;47.986;11.868;2022-12-18T01:39:19;-0.70;82.80
15394;DHT22;7795;47.986;11.868;2022-12-18T01:41:46;-0.70;82.80
15394;DHT22;7795;47.986;11.868;2022-12-18T01:44:57;-0.70;82.70
15394;DHT22;7795;47.986;11.868;2022-12-18T01:47:26;-0.60;82.80
15394;DHT22;7795;47.986;11.868;2022-12-18T01:49:53;-0.60;82.50
15394;DHT22;7795;47.986;11.868;2022-12-18T01:52:20;-0.60;82.50
15394;DHT22;7795;47.986;11.868;2022-12-18T01:54:47;-0.60;82.50
15394;DHT22;7795;47.986;11.868;2022-12-18T01:57:14;-0.60;82.50
15394;DHT22;7795;47.986;11.868;2022-12-18T01:59:41;-0.50;82.50
15394;DHT22;7795;47.986;11.868;2022-12-18T02:02:09;-0.50;82.50
15394;DHT22;7795;47.986;11.868;2022-12-18T02:04:35;-0.50;82.40
15394;DHT22;7795;47.986;11.868;2022-12-18T02:07:06;-0.50;82.30
15394;DHT22;7795;47.986;11.868;2022-12-18T02:09:36;-0.50;82.30
15394;DHT22;7795;47.986;11.868;2022-12-18T02:12:10;-0.50;82.30
15394;DHT22;7795;47.986;11.868;2022-12-18T02:14:41;-0.50;82.30
15394;DHT22;7795;47.986;11.868;2022-12-18T02:17:13;-0.50;82.40
15394;DHT22;7795;47.986;11.868;2022-12-18T02:19:55;-0.50;82.50
15394;DHT22;7795;47.986;11.868;2022-12-18T02:22:29;-0.50;82.50
15394;DHT22;7795;47.986;11.868;2022-12-18T02:25:05;-0.50;82.40
15394;DHT22;7795;47.986;11.868;2022-12-18T02:27:38;-0.50;82.40
15394;DHT22;7795;47.986;11.868;2022-12-18T02:30:06;-0.50;82.40
15394;DHT22;7795;47.986;11.868;2022-12-18T02:32:34;-0.50;82.30
15394;DHT22;7795;47.986;11.868;2022-12-18T02:35:03;-0.50;82.40
15394;DHT22;7795;47.986;11.868;2022-12-18T02:37:30;-0.50;82.30
15394;DHT22;7795;47.986;11.868;2022-12-18T02:39:59;-0.40;82.40
15394;DHT22;7795;47.986;11.868;2022-12-18T02:42:26;-0.40;82.40
15394;DHT22;7795;47.986;11.868;2022-12-18T02:44:54;-0.40;82.30
15394;DHT22;7795;47.986;11.868;2022-12-18T02:47:22;-0.40;82.30
15394;DHT22;7795;47.986;11.868;2022-12-18T02:49:55;-0.40;82.30
15394;DHT22;7795;47.986;11.868;2022-12-18T02:52:28;-0.40;82.20
15394;DHT22;7795;47.986;11.868;2022-12-18T02:55:02;-0.40;82.20
15394;DHT22;7795;47.986;11.868;2022-12-18T02:57:34;-0.50;82.20
15394;DHT22;7795;47.986;11.868;2022-12-18T03:00:07;-0.50;82.20
15394;DHT22;7795;47.986;11.868;2022-12-18T03:02:38;-0.50;82.30
15394;DHT22;7795;47.986;11.868;2022-12-18T03:05:10;-0.50;82.20
15394;DHT22;7795;47.986;11.868;2022-12-18T03:07:41;-0.50;82.20
15394;DHT22;7795;47.986;11.868;2022-12-18T03:10:09;-0.50;82.20
15394;DHT22;7795;47.986;11.868;2022-12-18T03:12:40;-0.50;82.00
15394;DHT22;7795;47.986;11.868;2022-12-18T03:15:12;-0.50;82.00
15394;DHT22;7795;47.986;11.868;2022-12-18T03:17:42;-0.50;82.10
15394;DHT22;7795;47.986;11.868;2022-12-18T03:20:13;-0.50;82.20
15394;DHT22;7795;47.986;11.868;2022-12-18T03:22:43;-0.50;82.20
15394;DHT22;7795;47.986;11.868;2022-12-18T03:25:13;-0.50;82.30
15394;DHT22;7795;47.986;11.868;2022-12-18T03:27:43;-0.50;82.20
15394;DHT22;7795;47.986;11.868;2022-12-18T03:30:14;-0.50;82.30
15394;DHT22;7795;47.986;11.868;2022-12-18T03:32:42;-0.50;82.30
15394;DHT22;7795;47.986;11.868;2022-12-18T03:35:14;-0.50;82.20
15394;DHT22;7795;47.986;11.868;2022-12-18T03:37:42;-0.50;82.20
15394;DHT22;7795;47.986;11.868;2022-12-18T03:40:08;-0.50;82.20
15394;DHT22;7795;47.986;11.868;2022-12-18T03:42:40;-0.50;82.00
15394;DHT22;7795;47.986;11.868;2022-12-18T03:45:12;-0.50;81.90
15394;DHT22;7795;47.986;11.868;2022-12-18T03:47:42;-0.60;81.90
15394;DHT22;7795;47.986;11.868;2022-12-18T03:50:14;-0.60;81.90
15394;DHT22;7795;47.986;11.868;2022-12-18T03:52:48;-0.60;81.90
15394;DHT22;7795;47.986;11.868;2022-12-18T03:55:15;-0.60;81.90
15394;DHT22;7795;47.986;11.868;2022-12-18T03:57:44;-0.60;81.90
15394;DHT22;7795;47.986;11.868;2022-12-18T04:00:14;-0.60;81.90
15394;DHT22;7795;47.986;11.868;2022-12-18T04:02:44;-0.60;81.90
15394;DHT22;7795;47.986;11.868;2022-12-18T04:05:11;-0.70;81.80
15394;DHT22;7795;47.986;11.868;2022-12-18T04:07:38;-0.70;81.90
15394;DHT22;7795;47.986;11.868;2022-12-18T04:10:07;-0.70;81.90
15394;DHT22;7795;47.986;11.868;2022-12-18T04:12:33;-0.70;82.00
15394;DHT22;7795;47.986;11.868;2022-12-18T04:14:59;-0.70;82.00
15394;DHT22;7795;47.986;11.868;2022-12-18T04:17:26;-0.70;82.10
15394;DHT22;7795;47.986;11.868;2022-12-18T04:19:52;-0.70;82.00
15394;DHT22;7795;47.986;11.868;2022-12-18T04:22:17;-0.70;82.00
15394;DHT22;7795;47.986;11.868;2022-12-18T04:24:43;-0.70;81.90
15394;DHT22;7795;47.986;11.868;2022-12-18T04:27:09;-0.70;81.90
15394;DHT22;7795;47.986;11.868;2022-12-18T04:29:35;-0.70;82.00
15394;DHT22;7795;47.986;11.868;2022-12-18T04:32:00;-0.70;82.00
15394;DHT22;7795;47.986;11.868;2022-12-18T04:34:27;-0.80;81.90
15394;DHT22;7795;47.986;11.868;2022-12-18T04:36:53;-0.80;81.90
15394;DHT22;7795;47.986;11.868;2022-12-18T04:39:19;-0.80;81.90
15394;DHT22;7795;47.986;11.868;2022-12-18T04:41:44;-0.80;81.90
15394;DHT22;7795;47.986;11.868;2022-12-18T04:44:10;-0.80;82.00
15394;DHT22;7795;47.986;11.868;2022-12-18T04:46:36;-0.80;82.00
15394;DHT22;7795;47.986;11.868;2022-12-18T04:49:02;-0.70;82.80
15394;DHT22;7795;47.986;11.868;2022-12-18T04:51:29;-0.80;81.90
15394;DHT22;7795;47.986;11.868;2022-12-18T04:53:54;-0.80;81.90
15394;DHT22;7795;47.986;11.868;2022-12-18T04:56:20;-0.80;81.90
15394;DHT22;7795;47.986;11.868;2022-12-18T04:58:46;-0.80;81.90
15394;DHT22;7795;47.986;11.868;2022-12-18T05:01:13;-0.80;81.90
15394;DHT22;7795;47.986;11.868;2022-12-18T05:03:39;-0.80;81.90
15394;DHT22;7795;47.986;11.868;2022-12-18T05:06:06;-0.80;81.90
15394;DHT22;7795;47.986;11.868;2022-12-18T05:08:33;-0.80;81.90
15394;DHT22;7795;47.986;11.868;2022-12-18T05:10:59;-0.80;81.90
15394;DHT22;7795;47.986;11.868;2022-12-18T05:13:25;-0.80;81.90
15394;DHT22;7795;47.986;11.868;2022-12-18T05:15:52;-0.80;81.90
15394;DHT22;7795;47.986;11.868;2022-12-18T05:18:18;-0.80;81.90
15394;DHT22;7795;47.986;11.868;2022-12-18T05:20:43;-0.80;82.00
15394;DHT22;7795;47.986;11.868;2022-12-18T05:23:09;-0.80;82.80
15394;DHT22;7795;47.986;11.868;2022-12-18T05:25:36;-0.80;82.00
15394;DHT22;7795;47.986;11.868;2022-12-18T05:28:02;-0.80;82.00
15394;DHT22;7795;47.986;11.868;2022-12-18T05:30:28;-0.80;82.10
15394;DHT22;7795;47.986;11.868;2022-12-18T05:32:53;-0.80;82.10
15394;DHT22;7795;47.986;11.868;2022-12-18T05:35:19;-0.80;82.00
15394;DHT22;7795;47.986;11.868;2022-12-18T05:37:45;-0.80;81.90
15394;DHT22;7795;47.986;11.868;2022-12-18T05:40:11;-0.70;82.00
15394;DHT22;7795;47.986;11.868;2022-12-18T05:42:39;-0.80;81.90
15394;DHT22;7795;47.986;11.868;2022-12-18T05:45:05;-0.80;81.90
15394;DHT22;7795;47.986;11.868;2022-12-18T05:47:31;-0.80;82.00
15394;DHT22;7795;47.986;11.868;2022-12-18T05:49:57;-0.70;82.00
15394;DHT22;7795;47.986;11.868;2022-12-18T05:52:23;-0.70;82.00
15394;DHT22;7795;47.986;11.868;2022-12-18T05:54:49;-0.70;82.00
15394;DHT22;7795;47.986;11.868;2022-12-18T05:57:15;-0.70;81.90
15394;DHT22;7795;47.986;11.868;2022-12-18T05:59:42;-0.70;81.80
15394;DHT22;7795;47.986;11.868;2022-12-18T06:02:07;-0.70;81.70
15394;DHT22;7795;47.986;11.868;2022-12-18T06:04:33;-0.70;81.60
15394;DHT22;7795;47.986;11.868;2022-12-18T06:06:59;-0.70;81.50
15394;DHT22;7795;47.986;11.868;2022-12-18T06:09:25;-0.80;81.30
15394;DHT22;7795;47.986;11.868;2022-12-18T06:11:51;-0.80;81.40
15394;DHT22;7795;47.986;11.868;2022-12-18T06:14:17;-0.80;82.20
15394;DHT22;7795;47.986;11.868;2022-12-18T06:16:44;-0.90;81.50
15394;DHT22;7795;47.986;11.868;2022-12-18T06:19:14;-0.90;81.50
15394;DHT22;7795;47.986;11.868;2022-12-18T06:21:40;-0.90;81.50
15394;DHT22;7795;47.986;11.868;2022-12-18T06:24:06;-0.90;81.50
15394;DHT22;7795;47.986;11.868;2022-12-18T06:26:32;-0.90;81.50
15394;DHT22;7795;47.986;11.868;2022-12-18T06:28:58;-0.90;81.60
15394;DHT22;7795;47.986;11.868;2022-12-18T06:31:23;-1.00;81.50
15394;DHT22;7795;47.986;11.868;2022-12-18T06:33:50;-0.90;81.60
15394;DHT22;7795;47.986;11.868;2022-12-18T06:36:16;-1.00;81.60
15394;DHT22;7795;47.986;11.868;2022-12-18T06:38:43;-1.00;81.60
15394;DHT22;7795;47.986;11.868;2022-12-18T06:41:10;-1.00;81.60
15394;DHT22;7795;47.986;11.868;2022-12-18T06:43:36;-1.00;82.30
15394;DHT22;7795;47.986;11.868;2022-12-18T06:46:03;-1.00;81.50
15394;DHT22;7795;47.986;11.868;2022-12-18T06:48:29;-1.00;81.50
15394;DHT22;7795;47.986;11.868;2022-12-18T06:50:57;-1.00;81.60
15394;DHT22;7795;47.986;11.868;2022-12-18T06:53:23;-1.00;81.60
15394;DHT22;7795;47.986;11.868;2022-12-18T06:55:49;-1.00;81.60
15394;DHT22;7795;47.986;11.868;2022-12-18T06:58:14;-1.00;81.60
15394;DHT22;7795;47.986;11.868;2022-12-18T07:00:40;-1.00;81.50
15394;DHT22;7795;47.986;11.868;2022-12-18T07:03:06;-1.00;81.40
15394;DHT22;7795;47.986;11.868;2022-12-18T07:05:32;-1.00;81.30
15394;DHT22;7795;47.986;11.868;2022-12-18T07:07:59;-1.10;81.20
15394;DHT22;7795;47.986;11.868;2022-12-18T07:10:25;-1.10;81.20
15394;DHT22;7795;47.986;11.868;2022-12-18T07:12:51;-1.20;81.20
15394;DHT22;7795;47.986;11.868;2022-12-18T07:15:17;-1.20;81.30
15394;DHT22;7795;47.986;11.868;2022-12-18T07:17:42;-1.20;81.30
15394;DHT22;7795;47.986;11.868;2022-12-18T07:20:09;-1.20;81.40
15394;DHT22;7795;47.986;11.868;2022-12-18T07:22:35;-1.20;81.40
15394;DHT22;7795;47.986;11.868;2022-12-18T07:25:02;-1.30;81.30
15394;DHT22;7795;47.986;11.868;2022-12-18T07:27:28;-1.30;81.40
15394;DHT22;7795;47.986;11.868;2022-12-18T07:29:54;-1.30;81.40
15394;DHT22;7795;47.986;11.868;2022-12-18T07:32:20;-1.30;81.50
15394;DHT22;7795;47.986;11.868;2022-12-18T07:34:46;-1.30;81.50
15394;DHT22;7795;47.986;11.868;2022-12-18T07:37:11;-1.30;81.60
15394;DHT22;7795;47.986;11.868;2022-12-18T07:39:37;-1.30;81.60
15394;DHT22;7795;47.986;11.868;2022-12-18T07:42:04;-1.30;81.60
15394;DHT22;7795;47.986;11.868;2022-12-18T07:44:48;-1.30;81.70
15394;DHT22;7795;47.986;11.868;2022-12-18T07:47:14;-1.30;81.70
15394;DHT22;7795;47.986;11.868;2022-12-18T07:49:40;-1.30;81.80
15394;DHT22;7795;47.986;11.868;2022-12-18T07:52:06;-1.30;81.80
15394;DHT22;7795;47.986;11.868;2022-12-18T07:54:31;-1.30;81.80
15394;DHT22;7795;47.986;11.868;2022-12-18T07:56:57;-1.30;81.80
15394;DHT22;7795;47.986;11.868;2022-12-18T07:59:24;-1.30;81.70
15394;DHT22;7795;47.986;11.868;2022-12-18T08:01:50;-1.30;81.70
15394;DHT22;7795;47.986;11.868;2022-12-18T08:04:16;-1.30;81.80
15394;DHT22;7795;47.986;11.868;2022-12-18T08:06:41;-1.30;81.70
15394;DHT22;7795;47.986;11.868;2022-12-18T08:09:09;-1.30;81.70
15394;DHT22;7795;47.986;11.868;2022-12-18T08:11:35;-1.30;81.70
15394;DHT22;7795;47.986;11.868;2022-12-18T08:14:01;-1.30;81.60
15394;DHT22;7795;47.986;11.868;2022-12-18T08:16:28;-1.30;81.50
15394;DHT22;7795;47.986;11.868;2022-12-18T08:18:54;-1.30;81.50
15394;DHT22;7795;47.986;11.868;2022-12-18T08:21:21;-1.30;81.30
15394;DHT22;7795;47.986;11.868;2022-12-18T08:23:48;-1.30;81.40
15394;DHT22;7795;47.986;11.868;2022-12-18T08:26:14;-1.30;81.50
15394;DHT22;7795;47.986;11.868;2022-12-18T08:28:40;-1.30;81.40
15394;DHT22;7795;47.986;11.868;2022-12-18T08:31:07;-1.30;81.30
15394;DHT22;7795;47.986;11.868;2022-12-18T08:33:35;-1.40;81.20
15394;DHT22;7795;47.986;11.868;2022-12-18T08:36:02;-1.40;81.30
15394;DHT22;7795;47.986;11.868;2022-12-18T08:38:28;-1.40;81.30
15394;DHT22;7795;47.986;11.868;2022-12-18T08:40:58;-1.40;81.40
15394;DHT22;7795;47.986;11.868;2022-12-18T08:43:24;-1.40;81.40
15394;DHT22;7795;47.986;11.868;2022-12-18T08:46:08;-1.40;81.50
15394;DHT22;7795;47.986;11.868;2022-12-18T08:48:36;-1.40;81.60
15394;DHT22;7795;47.986;11.868;2022-12-18T08:51:01;-1.30;81.60
15394;DHT22;7795;47.986;11.868;2022-12-18T08:53:27;-1.30;81.60
15394;DHT22;7795;47.986;11.868;2022-12-18T08:55:53;-1.30;81.70
15394;DHT22;7795;47.986;11.868;2022-12-18T08:58:19;-1.30;81.80
15394;DHT22;7795;47.986;11.868;2022-12-18T09:00:45;-1.30;81.80
15394;DHT22;7795;47.986;11.868;2022-12-18T09:03:12;-1.20;81.80
15394;DHT22;7795;47.986;11.868;2022-12-18T09:05:39;-1.20;81.80
15394;DHT22;7795;47.986;11.868;2022-12-18T09:08:05;-1.10;81.70
15394;DHT22;7795;47.986;11.868;2022-12-18T09:10:31;-1.10;81.60
15394;DHT22;7795;47.986;11.868;2022-12-18T09:12:57;-1.10;81.50
15394;DHT22;7795;47.986;11.868;2022-12-18T09:15:23;-1.10;81.40
15394;DHT22;7795;47.986;11.868;2022-12-18T09:17:48;-1.00;81.30
15394;DHT22;7795;47.986;11.868;2022-12-18T09:20:15;-1.00;82.00
15394;DHT22;7795;47.986;11.868;2022-12-18T09:22:42;-1.00;82.00
15394;DHT22;7795;47.986;11.868;2022-12-18T09:25:08;-1.00;81.20
15394;DHT22;7795;47.986;11.868;2022-12-18T09:27:34;-1.00;81.20
15394;DHT22;7795;47.986;11.868;2022-12-18T09:30:00;-1.00;81.10
15394;DHT22;7795;47.986;11.868;2022-12-18T09:32:26;-0.90;81.20
15394;DHT22;7795;47.986;11.868;2022-12-18T09:34:51;-0.90;81.10
15394;DHT22;7795;47.986;11.868;2022-12-18T09:37:17;-0.90;81.10
15394;DHT22;7795;47.986;11.868;2022-12-18T09:39:44;-0.90;81.20
15394;DHT22;7795;47.986;11.868;2022-12-18T09:42:17;-0.90;81.30
15394;DHT22;7795;47.986;11.868;2022-12-18T09:44:49;-0.80;81.30
15394;DHT22;7795;47.986;11.868;2022-12-18T09:47:18;-0.80;81.40
15394;DHT22;7795;47.986;11.868;2022-12-18T09:49:48;-0.70;81.50
15394;DHT22;7795;47.986;11.868;2022-12-18T09:52:19;-0.70;81.50
15394;DHT22;7795;47.986;11.868;2022-12-18T09:54:52;-0.60;81.30
15394;DHT22;7795;47.986;11.868;2022-12-18T09:57:21;-0.60;81.10
15394;DHT22;7795;47.986;11.868;2022-12-18T09:59:51;-0.50;81.20
15394;DHT22;7795;47.986;11.868;2022-12-18T10:02:20;-0.50;81.00
15394;DHT22;7795;47.986;11.868;2022-12-18T10:04:55;-0.50;80.70
15394;DHT22;7795;47.986;11.868;2022-12-18T10:07:29;-0.50;80.40
15394;DHT22;7795;47.986;11.868;2022-12-18T10:10:04;-0.50;80.30
15394;DHT22;7795;47.986;11.868;2022-12-18T10:12:38;-0.50;80.30
15394;DHT22;7795;47.986;11.868;2022-12-18T10:15:13;-0.50;80.50
15394;DHT22;7795;47.986;11.868;2022-12-18T10:17:42;-0.50;80.50
15394;DHT22;7795;47.986;11.868;2022-12-18T10:20:13;-0.40;80.60
15394;DHT22;7795;47.986;11.868;2022-12-18T10:22:50;-0.40;80.70
15394;DHT22;7795;47.986;11.868;2022-12-18T10:25:23;-0.40;80.70
15394;DHT22;7795;47.986;11.868;2022-12-18T10:27:53;-0.30;80.70
15394;DHT22;7795;47.986;11.868;2022-12-18T10:30:22;-0.30;80.60
15394;DHT22;7795;47.986;11.868;2022-12-18T10:32:49;-0.20;80.60
15394;DHT22;7795;47.986;11.868;2022-12-18T10:35:18;-0.20;80.60
15394;DHT22;7795;47.986;11.868;2022-12-18T10:40:50;-0.10;80.50
15394;DHT22;7795;47.986;11.868;2022-12-18T10:43:21;-0.10;80.40
15394;DHT22;7795;47.986;11.868;2022-12-18T10:46:01;-0.10;81.20
15394;DHT22;7795;47.986;11.868;2022-12-18T10:48:27;0.00;80.20
15394;DHT22;7795;47.986;11.868;2022-12-18T10:50:54;0.00;80.20
15394;DHT22;7795;47.986;11.868;2022-12-18T10:53:23;0.00;80.00
15394;DHT22;7795;47.986;11.868;2022-12-18T10:55:52;0.00;79.90
15394;DHT22;7795;47.986;11.868;2022-12-18T10:58:24;0.00;80.00
15394;DHT22;7795;47.986;11.868;2022-12-18T11:01:09;0.10;80.00
15394;DHT22;7795;47.986;11.868;2022-12-18T11:03:37;0.10;79.80
15394;DHT22;7795;47.986;11.868;2022-12-18T11:06:06;0.10;79.90
15394;DHT22;7795;47.986;11.868;2022-12-18T11:08:32;0.10;79.80
15394;DHT22;7795;47.986;11.868;2022-12-18T11:10:59;0.10;79.70
15394;DHT22;7795;47.986;11.868;2022-12-18T11:13:27;0.10;79.40
15394;DHT22;7795;47.986;11.868;2022-12-18T11:15:53;0.10;79.60
15394;DHT22;7795;47.986;11.868;2022-12-18T11:18:26;0.10;79.50
15394;DHT22;7795;47.986;11.868;2022-12-18T11:20:54;0.10;79.40
15394;DHT22;7795;47.986;11.868;2022-12-18T11:23:22;0.10;79.40
15394;DHT22;7795;47.986;11.868;2022-12-18T11:25:54;0.10;79.50
15394;DHT22;7795;47.986;11.868;2022-12-18T11:28:34;0.10;79.60
15394;DHT22;7795;47.986;11.868;2022-12-18T11:33:56;0.20;79.60
15394;DHT22;7795;47.986;11.868;2022-12-18T11:36:23;0.20;79.80
15394;DHT22;7795;47.986;11.868;2022-12-18T11:38:52;0.20;79.90
15394;DHT22;7795;47.986;11.868;2022-12-18T11:41:24;0.20;79.90
15394;DHT22;7795;47.986;11.868;2022-12-18T11:44:14;0.20;79.90
15394;DHT22;7795;47.986;11.868;2022-12-18T11:46:46;0.30;79.90
15394;DHT22;7795;47.986;11.868;2022-12-18T11:49:17;0.30;79.90
15394;DHT22;7795;47.986;11.868;2022-12-18T11:51:48;0.40;79.90
15394;DHT22;7795;47.986;11.868;2022-12-18T11:54:16;0.40;79.90
15394;DHT22;7795;47.986;11.868;2022-12-18T11:56:46;0.40;80.00
15394;DHT22;7795;47.986;11.868;2022-12-18T11:59:21;0.50;80.00
15394;DHT22;7795;47.986;11.868;2022-12-18T12:01:51;0.50;79.70
15394;DHT22;7795;47.986;11.868;2022-12-18T12:04:36;0.50;79.50
15394;DHT22;7795;47.986;11.868;2022-12-18T12:07:12;0.60;79.10
15394;DHT22;7795;47.986;11.868;2022-12-18T12:09:45;0.60;79.10
15394;DHT22;7795;47.986;11.868;2022-12-18T12:12:27;0.60;78.90
15394;DHT22;7795;47.986;11.868;2022-12-18T12:15:02;0.60;78.80
15394;DHT22;7795;47.986;11.868;2022-12-18T12:17:35;0.50;78.80
15394;DHT22;7795;47.986;11.868;2022-12-18T12:20:08;0.50;78.90
15394;DHT22;7795;47.986;11.868;2022-12-18T12:22:42;0.50;79.00
15394;DHT22;7795;47.986;11.868;2022-12-18T12:25:21;0.50;79.20
15394;DHT22;7795;47.986;11.868;2022-12-18T12:27:58;0.50;79.20
15394;DHT22;7795;47.986;11.868;2022-12-18T12:30:38;0.50;79.10
15394;DHT22;7795;47.986;11.868;2022-12-18T12:33:16;0.50;78.90
15394;DHT22;7795;47.986;11.868;2022-12-18T12:35:49;0.50;78.80
15394;DHT22;7795;47.986;11.868;2022-12-18T12:38:21;0.40;78.80
15394;DHT22;7795;47.986;11.868;2022-12-18T12:40:51;0.40;78.70
15394;DHT22;7795;47.986;11.868;2022-12-18T12:43:24;0.40;78.80
15394;DHT22;7795;47.986;11.868;2022-12-18T12:45:55;0.40;79.80
15394;DHT22;7795;47.986;11.868;2022-12-18T12:48:31;0.40;79.20
15394;DHT22;7795;47.986;11.868;2022-12-18T12:50:59;0.40;79.20
15394;DHT22;7795;47.986;11.868;2022-12-18T12:53:29;0.40;79.20
15394;DHT22;7795;47.986;11.868;2022-12-18T12:55:56;0.40;79.10
15394;DHT22;7795;47.986;11.868;2022-12-18T12:58:29;0.40;79.10
15394;DHT22;7795;47.986;11.868;2022-12-18T13:01:08;0.30;78.70
15394;DHT22;7795;47.986;11.868;2022-12-18T13:03:42;0.30;78.70
15394;DHT22;7795;47.986;11.868;2022-12-18T13:06:16;0.30;78.70
15394;DHT22;7795;47.986;11.868;2022-12-18T13:08:53;0.20;79.40
15394;DHT22;7795;47.986;11.868;2022-12-18T13:11:31;0.20;78.90
15394;DHT22;7795;47.986;11.868;2022-12-18T13:14:26;0.20;79.00
15394;DHT22;7795;47.986;11.868;2022-12-18T13:17:17;0.20;80.00
15394;DHT22;7795;47.986;11.868;2022-12-18T13:19:49;0.20;79.30
15394;DHT22;7795;47.986;11.868;2022-12-18T13:22:23;0.20;79.40
15394;DHT22;7795;47.986;11.868;2022-12-18T13:24:50;0.20;79.20
15394;DHT22;7795;47.986;11.868;2022-12-18T13:30:51;0.10;78.90
15394;DHT22;7795;47.986;11.868;2022-12-18T13:33:48;0.10;78.90
15394;DHT22;7795;47.986;11.868;2022-12-18T13:36:25;0.00;78.70
15394;DHT22;7795;47.986;11.868;2022-12-18T13:39:09;0.00;79.00
15394;DHT22;7795;47.986;11.868;2022-12-18T13:41:36;-0.10;79.00
15394;DHT22;7795;47.986;11.868;2022-12-18T13:44:11;-0.10;79.30
15394;DHT22;7795;47.986;11.868;2022-12-18T13:46:43;-0.10;79.40
15394;DHT22;7795;47.986;11.868;2022-12-18T13:49:21;-0.10;79.60
15394;DHT22;7795;47.986;11.868;2022-12-18T13:51:50;-0.10;79.70
15394;DHT22;7795;47.986;11.868;2022-12-18T13:54:19;-0.10;79.80
15394;DHT22;7795;47.986;11.868;2022-12-18T13:56:48;0.00;79.80
15394;DHT22;7795;47.986;11.868;2022-12-18T13:59:17;0.00;79.70
15394;DHT22;7795;47.986;11.868;2022-12-18T14:01:44;0.00;79.60
15394;DHT22;7795;47.986;11.868;2022-12-18T14:04:12;0.00;79.50
15394;DHT22;7795;47.986;11.868;2022-12-18T14:06:46;0.00;79.40
15394;DHT22;7795;47.986;11.868;2022-12-18T14:09:14;0.00;79.40
15394;DHT22;7795;47.986;11.868;2022-12-18T14:11:45;0.00;79.40
15394;DHT22;7795;47.986;11.868;2022-12-18T14:14:13;-0.10;79.20
15394;DHT22;7795;47.986;11.868;2022-12-18T14:16:40;-0.10;79.20
15394;DHT22;7795;47.986;11.868;2022-12-18T14:19:12;-0.10;80.10
15394;DHT22;7795;47.986;11.868;2022-12-18T14:21:39;-0.10;79.50
15394;DHT22;7795;47.986;11.868;2022-12-18T14:24:13;-0.20;79.60
15394;DHT22;7795;47.986;11.868;2022-12-18T14:26:40;-0.20;79.40
15394;DHT22;7795;47.986;11.868;2022-12-18T14:29:20;-0.20;79.60
15394;DHT22;7795;47.986;11.868;2022-12-18T14:31:50;-0.20;79.60
15394;DHT22;7795;47.986;11.868;2022-12-18T14:34:29;-0.20;79.60
15394;DHT22;7795;47.986;11.868;2022-12-18T14:36:54;-0.20;79.60
15394;DHT22;7795;47.986;11.868;2022-12-18T14:39:22;-0.20;79.60
15394;DHT22;7795;47.986;11.868;2022-12-18T14:41:51;-0.20;79.60
15394;DHT22;7795;47.986;11.868;2022-12-18T14:44:17;-0.20;79.80
15394;DHT22;7795;47.986;11.868;2022-12-18T14:46:43;-0.20;79.90
15394;DHT22;7795;47.986;11.868;2022-12-18T14:49:20;-0.20;80.50
15394;DHT22;7795;47.986;11.868;2022-12-18T14:51:48;-0.10;79.80
15394;DHT22;7795;47.986;11.868;2022-12-18T14:54:16;-0.10;79.90
15394;DHT22;7795;47.986;11.868;2022-12-18T14:56:45;-0.10;79.80
15394;DHT22;7795;47.986;11.868;2022-12-18T14:59:14;-0.10;79.70
15394;DHT22;7795;47.986;11.868;2022-12-18T15:01:46;-0.10;79.70
15394;DHT22;7795;47.986;11.868;2022-12-18T15:04:24;-0.10;79.60
15394;DHT22;7795;47.986;11.868;2022-12-18T15:07:03;-0.10;79.60
15394;DHT22;7795;47.986;11.868;2022-12-18T15:09:29;-0.10;79.60
15394;DHT22;7795;47.986;11.868;2022-12-18T15:11:58;-0.10;79.60
15394;DHT22;7795;47.986;11.868;2022-12-18T15:14:34;-0.20;79.60
15394;DHT22;7795;47.986;11.868;2022-12-18T15:17:06;-0.20;79.60
15394;DHT22;7795;47.986;11.868;2022-12-18T15:19:41;-0.20;79.60
15394;DHT22;7795;47.986;11.868;2022-12-18T15:22:23;-0.20;79.50
15394;DHT22;7795;47.986;11.868;2022-12-18T15:24:50;-0.20;79.40
15394;DHT22;7795;47.986;11.868;2022-12-18T15:27:23;-0.30;79.40
15394;DHT22;7795;47.986;11.868;2022-12-18T15:32:55;-0.30;79.60
15394;DHT22;7795;47.986;11.868;2022-12-18T15:35:38;-0.40;79.60
15394;DHT22;7795;47.986;11.868;2022-12-18T15:38:04;-0.40;79.70
15394;DHT22;7795;47.986;11.868;2022-12-18T15:40:29;-0.40;79.90
15394;DHT22;7795;47.986;11.868;2022-12-18T15:42:57;-0.40;80.20
15394;DHT22;7795;47.986;11.868;2022-12-18T15:45:41;-0.40;79.90
15394;DHT22;7795;47.986;11.868;2022-12-18T15:48:17;-0.40;79.90
15394;DHT22;7795;47.986;11.868;2022-12-18T15:50:44;-0.40;79.90
15394;DHT22;7795;47.986;11.868;2022-12-18T15:53:10;-0.50;79.90
15394;DHT22;7795;47.986;11.868;2022-12-18T15:55:35;-0.50;79.90
15394;DHT22;7795;47.986;11.868;2022-12-18T15:58:21;-0.50;80.00